Kenosha Regional Airport
KENW : rendu visible

Aérodrome :











RETROUVEZ-NOUS SUR...

 
LOGIN :

S'inscrire | Disclaimer

   EN    FR    IT 

 









Légende :    VFR   VFR Marginal   IFR   IFR Intensif   IFR Très Intensif
Visi : 
Plafond : 
>= 8 km
>= 3000ft
5 à 8 km
1000 à 3000 ft
1500m à 5 km
500 à 1000 ft
800 à 1500m
200 à 500 ft
< 800m
< 200 ft
Symboles :   Orages  Brouillard  Fortes neiges  Fortes précipitations  Vent > 20 kt






- Altitude de l'aérodrome : 742 ft


KENW - Kenosha Regional

DERNIER METAR :
  • 212253Z 21008KT 10SM CLR M03/M08 A3043 RMK AO2 SLP317 T10281078 $

METARs EXPIRÉS :
  • 212153Z 22011G18KT 10SM CLR M02/M08 A3044 RMK AO2 SLP322 T10171078 $
  • 212053Z 22011KT 10SM CLR M02/M08 A3046 RMK AO2 SLP331 T10171078 56019 $

TAF KENW
Valide du 21 à 21h jusqu'au 22 à 18h UTC


212114Z 2121/2218 22011KT P6SM SCT250
FM220000 22012KT P6SM BKN250
FM221500 21014G24KT P6SM BKN180



MET'MAP, la Météo Aéronautique d'un coup d'oeil ! - Copyright ORBIFLY Décembre 2007 - Disclaimer

ORBIFLY MET'MAP TEAM :

Programmation & Développement : Alexandra Zaïnal
Sur une idée originale de : Baudouin d'Aumeries
Assistance à la programmation : Marc-Olivier Méhu
Soutien technique & logistique : Manuel Goepfert

Contact : metmap@orbifly.com




SOURCES & CREDITS :

   NOAA       Earth
Advisory